sensor_id;sensor_type;location;lat;lon;timestamp;pressure;altitude;pressure_sealevel;temperature;humidity
37878;BME280;23715;53.652;8.516;2023-05-13T00:02:58;102312.31;;;15.17;100.00
37878;BME280;23715;53.652;8.516;2023-05-13T00:07:58;102307.02;;;15.10;100.00
37878;BME280;23715;53.652;8.516;2023-05-13T00:13:00;102305.33;;;15.03;100.00
37878;BME280;23715;53.652;8.516;2023-05-13T00:18:00;102305.20;;;15.05;100.00
37878;BME280;23715;53.652;8.516;2023-05-13T00:23:00;102301.26;;;15.03;100.00
37878;BME280;23715;53.652;8.516;2023-05-13T00:28:01;102300.27;;;14.87;100.00
37878;BME280;23715;53.652;8.516;2023-05-13T00:33:01;102303.38;;;14.77;100.00
37878;BME280;23715;53.652;8.516;2023-05-13T00:38:02;102299.54;;;14.57;100.00
37878;BME280;23715;53.652;8.516;2023-05-13T00:43:02;102296.44;;;14.39;100.00
37878;BME280;23715;53.652;8.516;2023-05-13T00:48:04;102310.20;;;14.36;100.00
37878;BME280;23715;53.652;8.516;2023-05-13T00:53:12;102297.66;;;14.35;100.00
37878;BME280;23715;53.652;8.516;2023-05-13T00:58:08;102301.70;;;14.23;100.00
37878;BME280;23715;53.652;8.516;2023-05-13T01:03:26;102303.06;;;13.82;100.00
37878;BME280;23715;53.652;8.516;2023-05-13T01:09:07;102301.48;;;13.85;100.00
37878;BME280;23715;53.652;8.516;2023-05-13T01:14:18;102299.22;;;13.68;100.00
37878;BME280;23715;53.652;8.516;2023-05-13T01:24:26;102309.04;;;13.39;100.00
37878;BME280;23715;53.652;8.516;2023-05-13T01:29:28;102317.25;;;13.38;100.00
37878;BME280;23715;53.652;8.516;2023-05-13T01:34:29;102318.85;;;13.40;100.00
37878;BME280;23715;53.652;8.516;2023-05-13T01:39:32;102322.16;;;13.38;100.00
37878;BME280;23715;53.652;8.516;2023-05-13T01:44:35;102318.25;;;13.42;100.00
37878;BME280;23715;53.652;8.516;2023-05-13T01:49:36;102320.31;;;13.39;100.00
37878;BME280;23715;53.652;8.516;2023-05-13T01:54:38;102319.17;;;13.30;100.00
37878;BME280;23715;53.652;8.516;2023-05-13T01:59:40;102318.47;;;13.21;100.00
37878;BME280;23715;53.652;8.516;2023-05-13T02:04:40;102320.45;;;13.24;100.00
37878;BME280;23715;53.652;8.516;2023-05-13T02:09:41;102314.62;;;12.99;100.00
37878;BME280;23715;53.652;8.516;2023-05-13T02:14:41;102321.23;;;12.77;100.00
37878;BME280;23715;53.652;8.516;2023-05-13T02:19:41;102318.69;;;12.68;100.00
37878;BME280;23715;53.652;8.516;2023-05-13T02:24:41;102315.94;;;12.62;100.00
37878;BME280;23715;53.652;8.516;2023-05-13T02:29:42;102326.58;;;12.58;100.00
37878;BME280;23715;53.652;8.516;2023-05-13T02:34:42;102326.68;;;12.69;100.00
37878;BME280;23715;53.652;8.516;2023-05-13T02:39:42;102331.19;;;12.18;100.00
37878;BME280;23715;53.652;8.516;2023-05-13T02:44:42;102328.69;;;12.02;100.00
37878;BME280;23715;53.652;8.516;2023-05-13T02:49:43;102337.67;;;11.68;100.00
37878;BME280;23715;53.652;8.516;2023-05-13T02:54:43;102332.06;;;11.51;100.00
37878;BME280;23715;53.652;8.516;2023-05-13T02:59:44;102336.62;;;11.36;100.00
37878;BME280;23715;53.652;8.516;2023-05-13T03:04:44;102330.22;;;11.24;100.00
37878;BME280;23715;53.652;8.516;2023-05-13T03:09:45;102338.85;;;11.64;100.00
37878;BME280;23715;53.652;8.516;2023-05-13T03:14:45;102333.69;;;12.01;100.00
37878;BME280;23715;53.652;8.516;2023-05-13T03:19:45;102331.25;;;11.90;100.00
37878;BME280;23715;53.652;8.516;2023-05-13T03:24:46;102338.38;;;11.84;100.00
37878;BME280;23715;53.652;8.516;2023-05-13T03:29:46;102338.61;;;11.74;100.00
37878;BME280;23715;53.652;8.516;2023-05-13T03:34:47;102336.02;;;12.00;100.00
37878;BME280;23715;53.652;8.516;2023-05-13T03:39:48;102330.43;;;12.16;100.00
37878;BME280;23715;53.652;8.516;2023-05-13T03:44:48;102336.06;;;12.38;100.00
37878;BME280;23715;53.652;8.516;2023-05-13T03:49:49;102340.34;;;12.35;100.00
37878;BME280;23715;53.652;8.516;2023-05-13T03:54:49;102337.59;;;12.29;100.00
37878;BME280;23715;53.652;8.516;2023-05-13T03:59:49;102330.72;;;12.18;100.00
37878;BME280;23715;53.652;8.516;2023-05-13T04:04:50;102340.59;;;12.25;100.00
37878;BME280;23715;53.652;8.516;2023-05-13T04:09:50;102337.70;;;12.41;100.00
37878;BME280;23715;53.652;8.516;2023-05-13T04:14:51;102335.68;;;12.50;100.00
37878;BME280;23715;53.652;8.516;2023-05-13T04:19:54;102346.14;;;12.29;100.00
37878;BME280;23715;53.652;8.516;2023-05-13T04:24:54;102347.78;;;12.32;100.00
37878;BME280;23715;53.652;8.516;2023-05-13T04:29:54;102351.49;;;12.36;100.00
37878;BME280;23715;53.652;8.516;2023-05-13T04:34:55;102358.31;;;12.55;100.00
37878;BME280;23715;53.652;8.516;2023-05-13T04:39:56;102358.52;;;12.64;100.00
37878;BME280;23715;53.652;8.516;2023-05-13T04:44:56;102359.83;;;12.72;100.00
37878;BME280;23715;53.652;8.516;2023-05-13T04:49:56;102362.73;;;12.81;100.00
37878;BME280;23715;53.652;8.516;2023-05-13T04:54:58;102362.66;;;13.01;100.00
37878;BME280;23715;53.652;8.516;2023-05-13T05:00:00;102375.31;;;13.32;100.00
37878;BME280;23715;53.652;8.516;2023-05-13T05:05:02;102379.58;;;13.47;100.00
37878;BME280;23715;53.652;8.516;2023-05-13T05:10:03;102375.81;;;13.56;100.00
37878;BME280;23715;53.652;8.516;2023-05-13T05:15:05;102381.95;;;13.76;100.00
37878;BME280;23715;53.652;8.516;2023-05-13T05:20:07;102380.48;;;14.02;100.00
37878;BME280;23715;53.652;8.516;2023-05-13T05:25:09;102385.77;;;14.09;100.00
37878;BME280;23715;53.652;8.516;2023-05-13T05:30:10;102376.44;;;14.13;100.00
37878;BME280;23715;53.652;8.516;2023-05-13T05:35:11;102387.95;;;14.39;100.00
37878;BME280;23715;53.652;8.516;2023-05-13T05:40:14;102386.36;;;14.37;100.00
37878;BME280;23715;53.652;8.516;2023-05-13T05:45:15;102383.02;;;14.69;100.00
37878;BME280;23715;53.652;8.516;2023-05-13T05:50:16;102381.53;;;14.87;100.00
37878;BME280;23715;53.652;8.516;2023-05-13T05:55:16;102378.47;;;15.03;100.00
37878;BME280;23715;53.652;8.516;2023-05-13T06:00:16;102375.37;;;14.96;100.00
37878;BME280;23715;53.652;8.516;2023-05-13T06:05:16;102379.20;;;15.05;100.00
37878;BME280;23715;53.652;8.516;2023-05-13T06:10:18;102378.47;;;15.20;100.00
37878;BME280;23715;53.652;8.516;2023-05-13T06:15:19;102373.36;;;15.43;100.00
37878;BME280;23715;53.652;8.516;2023-05-13T06:20:19;102370.48;;;15.62;100.00
37878;BME280;23715;53.652;8.516;2023-05-13T06:25:19;102369.34;;;15.81;100.00
37878;BME280;23715;53.652;8.516;2023-05-13T06:30:19;102364.74;;;15.88;100.00
37878;BME280;23715;53.652;8.516;2023-05-13T06:35:21;102366.63;;;16.08;100.00
37878;BME280;23715;53.652;8.516;2023-05-13T06:40:21;102359.41;;;16.24;100.00
37878;BME280;23715;53.652;8.516;2023-05-13T06:45:22;102358.87;;;16.30;100.00
37878;BME280;23715;53.652;8.516;2023-05-13T06:50:24;102364.05;;;16.33;100.00
37878;BME280;23715;53.652;8.516;2023-05-13T06:55:29;102353.34;;;16.63;100.00
37878;BME280;23715;53.652;8.516;2023-05-13T07:00:26;102353.50;;;16.92;100.00
37878;BME280;23715;53.652;8.516;2023-05-13T07:05:26;102351.75;;;16.96;100.00
37878;BME280;23715;53.652;8.516;2023-05-13T07:10:28;102353.35;;;17.09;100.00
37878;BME280;23715;53.652;8.516;2023-05-13T07:15:28;102350.02;;;17.36;100.00
37878;BME280;23715;53.652;8.516;2023-05-13T07:20:29;102349.83;;;17.53;100.00
37878;BME280;23715;53.652;8.516;2023-05-13T07:25:28;102358.28;;;17.69;100.00
37878;BME280;23715;53.652;8.516;2023-05-13T07:30:29;102352.53;;;17.88;100.00
37878;BME280;23715;53.652;8.516;2023-05-13T07:35:29;102345.49;;;18.14;100.00
37878;BME280;23715;53.652;8.516;2023-05-13T07:40:29;102346.89;;;18.28;100.00
37878;BME280;23715;53.652;8.516;2023-05-13T07:45:30;102343.61;;;18.34;100.00
37878;BME280;23715;53.652;8.516;2023-05-13T07:50:31;102333.88;;;18.56;100.00
37878;BME280;23715;53.652;8.516;2023-05-13T07:55:31;102331.67;;;18.69;100.00
37878;BME280;23715;53.652;8.516;2023-05-13T08:00:32;102332.69;;;18.91;100.00
37878;BME280;23715;53.652;8.516;2023-05-13T08:05:33;102331.87;;;19.09;100.00
37878;BME280;23715;53.652;8.516;2023-05-13T08:10:33;102333.58;;;19.10;100.00
37878;BME280;23715;53.652;8.516;2023-05-13T08:15:33;102337.72;;;19.14;100.00
37878;BME280;23715;53.652;8.516;2023-05-13T08:20:33;102329.91;;;19.15;100.00
37878;BME280;23715;53.652;8.516;2023-05-13T08:25:33;102337.47;;;19.21;100.00
37878;BME280;23715;53.652;8.516;2023-05-13T08:30:35;102333.91;;;19.39;100.00
37878;BME280;23715;53.652;8.516;2023-05-13T08:35:37;102331.25;;;19.43;100.00
37878;BME280;23715;53.652;8.516;2023-05-13T08:40:38;102345.31;;;19.84;100.00
37878;BME280;23715;53.652;8.516;2023-05-13T08:45:40;102339.13;;;19.78;100.00
37878;BME280;23715;53.652;8.516;2023-05-13T08:50:42;102334.94;;;19.87;100.00
37878;BME280;23715;53.652;8.516;2023-05-13T08:55:43;102346.02;;;19.86;100.00
37878;BME280;23715;53.652;8.516;2023-05-13T09:00:43;102347.53;;;20.02;100.00
37878;BME280;23715;53.652;8.516;2023-05-13T09:05:43;102343.58;;;20.19;100.00
37878;BME280;23715;53.652;8.516;2023-05-13T09:10:44;102332.70;;;20.27;100.00
37878;BME280;23715;53.652;8.516;2023-05-13T09:15:49;102337.23;;;20.40;100.00
37878;BME280;23715;53.652;8.516;2023-05-13T09:20:47;102343.41;;;20.46;100.00
37878;BME280;23715;53.652;8.516;2023-05-13T09:25:47;102346.23;;;20.59;100.00
37878;BME280;23715;53.652;8.516;2023-05-13T09:30:53;102344.33;;;20.77;100.00
37878;BME280;23715;53.652;8.516;2023-05-13T09:35:52;102334.14;;;20.96;100.00
37878;BME280;23715;53.652;8.516;2023-05-13T09:40:54;102332.09;;;20.94;100.00
37878;BME280;23715;53.652;8.516;2023-05-13T09:45:57;102329.59;;;21.13;100.00
37878;BME280;23715;53.652;8.516;2023-05-13T09:50:57;102332.55;;;21.28;100.00
37878;BME280;23715;53.652;8.516;2023-05-13T09:55:58;102327.09;;;21.36;100.00
37878;BME280;23715;53.652;8.516;2023-05-13T10:01:09;102329.66;;;21.29;100.00
37878;BME280;23715;53.652;8.516;2023-05-13T10:06:18;102323.06;;;21.56;100.00
37878;BME280;23715;53.652;8.516;2023-05-13T10:11:21;102323.59;;;21.52;100.00
37878;BME280;23715;53.652;8.516;2023-05-13T10:16:24;102317.27;;;21.63;100.00
37878;BME280;23715;53.652;8.516;2023-05-13T10:21:27;102309.41;;;21.81;100.00
37878;BME280;23715;53.652;8.516;2023-05-13T10:26:28;102304.28;;;22.02;100.00
37878;BME280;23715;53.652;8.516;2023-05-13T10:31:29;102294.67;;;22.11;100.00
37878;BME280;23715;53.652;8.516;2023-05-13T10:47:10;102288.48;;;22.41;100.00
37878;BME280;23715;53.652;8.516;2023-05-13T10:52:12;102286.43;;;22.39;100.00
37878;BME280;23715;53.652;8.516;2023-05-13T10:57:13;102281.66;;;22.33;100.00
37878;BME280;23715;53.652;8.516;2023-05-13T11:02:19;102285.70;;;22.50;100.00
37878;BME280;23715;53.652;8.516;2023-05-13T11:07:19;102278.11;;;22.68;100.00
37878;BME280;23715;53.652;8.516;2023-05-13T11:12:20;102274.86;;;22.65;100.00
37878;BME280;23715;53.652;8.516;2023-05-13T11:17:19;102263.03;;;22.68;100.00
37878;BME280;23715;53.652;8.516;2023-05-13T11:22:21;102275.33;;;22.80;100.00
37878;BME280;23715;53.652;8.516;2023-05-13T11:27:25;102268.75;;;22.94;100.00
37878;BME280;23715;53.652;8.516;2023-05-13T11:37:55;102262.89;;;23.32;100.00
37878;BME280;23715;53.652;8.516;2023-05-13T11:42:55;102262.95;;;23.47;99.04
37878;BME280;23715;53.652;8.516;2023-05-13T11:47:55;102254.05;;;23.45;91.07
37878;BME280;23715;53.652;8.516;2023-05-13T11:53:00;102249.16;;;23.32;86.56
37878;BME280;23715;53.652;8.516;2023-05-13T11:58:02;102243.88;;;23.27;87.64
37878;BME280;23715;53.652;8.516;2023-05-13T12:03:09;102243.00;;;23.53;84.54
37878;BME280;23715;53.652;8.516;2023-05-13T12:08:10;102250.22;;;23.50;83.83
37878;BME280;23715;53.652;8.516;2023-05-13T12:13:10;102242.37;;;23.47;84.54
37878;BME280;23715;53.652;8.516;2023-05-13T12:18:11;102238.95;;;23.45;86.03
37878;BME280;23715;53.652;8.516;2023-05-13T12:23:11;102237.86;;;23.50;82.99
37878;BME280;23715;53.652;8.516;2023-05-13T12:28:20;102229.75;;;23.80;85.03
37878;BME280;23715;53.652;8.516;2023-05-13T12:33:28;102222.23;;;23.74;82.54
37878;BME280;23715;53.652;8.516;2023-05-13T12:38:28;102234.46;;;23.67;87.67
37878;BME280;23715;53.652;8.516;2023-05-13T12:43:28;102234.92;;;23.79;84.45
37878;BME280;23715;53.652;8.516;2023-05-13T12:48:34;102232.09;;;23.87;85.69
37878;BME280;23715;53.652;8.516;2023-05-13T12:53:34;102230.91;;;23.63;75.66
37878;BME280;23715;53.652;8.516;2023-05-13T12:58:34;102229.09;;;23.74;81.12
37878;BME280;23715;53.652;8.516;2023-05-13T13:03:35;102232.94;;;23.46;77.91
37878;BME280;23715;53.652;8.516;2023-05-13T13:08:35;102222.34;;;23.85;86.05
37878;BME280;23715;53.652;8.516;2023-05-13T13:13:36;102214.19;;;23.91;80.37
37878;BME280;23715;53.652;8.516;2023-05-13T13:18:35;102214.19;;;23.91;80.37
37878;BME280;23715;53.652;8.516;2023-05-13T13:23:35;102201.80;;;24.25;81.97
37878;BME280;23715;53.652;8.516;2023-05-13T13:28:36;102205.05;;;24.40;81.65
37878;BME280;23715;53.652;8.516;2023-05-13T13:33:36;102208.43;;;24.46;79.98
37878;BME280;23715;53.652;8.516;2023-05-13T13:38:36;102214.08;;;24.63;85.23
37878;BME280;23715;53.652;8.516;2023-05-13T13:43:37;102205.70;;;24.71;80.46
37878;BME280;23715;53.652;8.516;2023-05-13T13:48:37;102205.54;;;24.58;72.56
37878;BME280;23715;53.652;8.516;2023-05-13T13:53:37;102201.73;;;24.44;70.95
37878;BME280;23715;53.652;8.516;2023-05-13T13:58:37;102209.27;;;23.87;70.05
37878;BME280;23715;53.652;8.516;2023-05-13T14:03:38;102202.27;;;24.14;77.79
37878;BME280;23715;53.652;8.516;2023-05-13T14:08:38;102194.56;;;24.28;77.01
37878;BME280;23715;53.652;8.516;2023-05-13T14:13:39;102189.37;;;24.14;73.78
37878;BME280;23715;53.652;8.516;2023-05-13T14:18:38;102192.82;;;23.97;74.11
37878;BME280;23715;53.652;8.516;2023-05-13T14:23:38;102179.75;;;24.14;71.62
37878;BME280;23715;53.652;8.516;2023-05-13T14:28:40;102173.34;;;24.48;76.38
37878;BME280;23715;53.652;8.516;2023-05-13T14:33:41;102178.07;;;24.69;72.03
37878;BME280;23715;53.652;8.516;2023-05-13T14:38:44;102174.09;;;24.82;77.05
37878;BME280;23715;53.652;8.516;2023-05-13T14:43:49;102173.13;;;24.90;72.86
37878;BME280;23715;53.652;8.516;2023-05-13T14:48:48;102174.16;;;24.89;70.73
37878;BME280;23715;53.652;8.516;2023-05-13T14:53:48;102162.70;;;24.96;70.69
37878;BME280;23715;53.652;8.516;2023-05-13T14:58:48;102162.99;;;25.23;79.46
37878;BME280;23715;53.652;8.516;2023-05-13T15:03:52;102162.37;;;24.84;77.56
37878;BME280;23715;53.652;8.516;2023-05-13T15:08:52;102165.48;;;24.30;79.75
37878;BME280;23715;53.652;8.516;2023-05-13T15:14:01;102159.09;;;24.19;80.37
37878;BME280;23715;53.652;8.516;2023-05-13T15:18:57;102150.78;;;24.52;78.96
37878;BME280;23715;53.652;8.516;2023-05-13T15:23:58;102148.66;;;24.69;73.31
37878;BME280;23715;53.652;8.516;2023-05-13T15:28:58;102140.03;;;24.94;72.50
37878;BME280;23715;53.652;8.516;2023-05-13T15:33:58;102142.80;;;25.16;75.51
37878;BME280;23715;53.652;8.516;2023-05-13T15:39:00;102142.73;;;25.20;79.42
37878;BME280;23715;53.652;8.516;2023-05-13T15:44:00;102141.91;;;24.61;86.11
37878;BME280;23715;53.652;8.516;2023-05-13T15:49:00;102157.58;;;24.16;86.14
37878;BME280;23715;53.652;8.516;2023-05-13T15:54:00;102153.67;;;23.81;87.68
37878;BME280;23715;53.652;8.516;2023-05-13T15:59:01;102157.73;;;23.70;85.87
37878;BME280;23715;53.652;8.516;2023-05-13T16:04:01;102149.52;;;24.00;85.49
37878;BME280;23715;53.652;8.516;2023-05-13T16:09:02;102142.09;;;24.19;80.58
37878;BME280;23715;53.652;8.516;2023-05-13T16:14:02;102132.53;;;24.41;78.16
37878;BME280;23715;53.652;8.516;2023-05-13T16:19:02;102133.02;;;24.29;77.93
37878;BME280;23715;53.652;8.516;2023-05-13T16:24:08;102120.16;;;24.41;80.76
37878;BME280;23715;53.652;8.516;2023-05-13T16:29:06;102121.42;;;24.23;76.59
37878;BME280;23715;53.652;8.516;2023-05-13T16:34:08;102123.62;;;24.39;82.61
37878;BME280;23715;53.652;8.516;2023-05-13T16:39:13;102125.66;;;24.15;76.97
37878;BME280;23715;53.652;8.516;2023-05-13T16:44:16;102118.33;;;24.22;80.25
37878;BME280;23715;53.652;8.516;2023-05-13T16:49:17;102122.51;;;24.18;80.20
37878;BME280;23715;53.652;8.516;2023-05-13T16:54:16;102120.16;;;24.15;82.59
37878;BME280;23715;53.652;8.516;2023-05-13T16:59:23;102121.37;;;23.97;83.15
37878;BME280;23715;53.652;8.516;2023-05-13T17:04:24;102122.95;;;23.77;81.20
37878;BME280;23715;53.652;8.516;2023-05-13T17:09:27;102128.64;;;23.61;80.89
37878;BME280;23715;53.652;8.516;2023-05-13T17:14:28;102135.39;;;23.35;82.49
37878;BME280;23715;53.652;8.516;2023-05-13T17:19:29;102140.98;;;22.99;85.59
37878;BME280;23715;53.652;8.516;2023-05-13T17:24:30;102139.72;;;22.83;89.11
37878;BME280;23715;53.652;8.516;2023-05-13T17:29:30;102137.77;;;22.65;91.23
37878;BME280;23715;53.652;8.516;2023-05-13T17:34:32;102129.86;;;22.70;94.99
37878;BME280;23715;53.652;8.516;2023-05-13T17:39:32;102133.42;;;22.78;96.04
37878;BME280;23715;53.652;8.516;2023-05-13T17:44:33;102135.69;;;22.39;97.13
37878;BME280;23715;53.652;8.516;2023-05-13T17:49:32;102132.31;;;22.29;97.20
37878;BME280;23715;53.652;8.516;2023-05-13T17:54:32;102127.13;;;22.34;97.71
37878;BME280;23715;53.652;8.516;2023-05-13T17:59:32;102132.38;;;22.05;99.58
37878;BME280;23715;53.652;8.516;2023-05-13T18:04:32;102134.74;;;22.16;100.00
37878;BME280;23715;53.652;8.516;2023-05-13T18:09:32;102137.67;;;22.10;100.00
37878;BME280;23715;53.652;8.516;2023-05-13T18:14:32;102153.02;;;21.31;100.00
37878;BME280;23715;53.652;8.516;2023-05-13T18:19:32;102154.69;;;21.07;100.00
37878;BME280;23715;53.652;8.516;2023-05-13T18:24:32;102154.86;;;21.05;100.00
37878;BME280;23715;53.652;8.516;2023-05-13T18:29:32;102151.60;;;20.90;100.00
37878;BME280;23715;53.652;8.516;2023-05-13T18:34:33;102160.81;;;20.89;100.00
37878;BME280;23715;53.652;8.516;2023-05-13T18:39:33;102161.63;;;20.64;100.00
37878;BME280;23715;53.652;8.516;2023-05-13T18:44:33;102165.02;;;20.24;100.00
37878;BME280;23715;53.652;8.516;2023-05-13T18:49:33;102164.20;;;19.97;100.00
37878;BME280;23715;53.652;8.516;2023-05-13T18:54:34;102163.11;;;19.64;100.00
37878;BME280;23715;53.652;8.516;2023-05-13T18:59:34;102167.92;;;19.48;100.00
37878;BME280;23715;53.652;8.516;2023-05-13T19:04:35;102175.08;;;19.45;100.00
37878;BME280;23715;53.652;8.516;2023-05-13T19:09:35;102175.83;;;19.55;100.00
37878;BME280;23715;53.652;8.516;2023-05-13T19:14:35;102181.02;;;19.22;100.00
37878;BME280;23715;53.652;8.516;2023-05-13T19:19:35;102187.44;;;19.17;100.00
37878;BME280;23715;53.652;8.516;2023-05-13T19:24:35;102190.32;;;18.98;100.00
37878;BME280;23715;53.652;8.516;2023-05-13T19:29:35;102191.31;;;18.97;100.00
37878;BME280;23715;53.652;8.516;2023-05-13T19:34:35;102195.87;;;18.78;100.00
37878;BME280;23715;53.652;8.516;2023-05-13T19:39:35;102194.17;;;18.63;100.00
37878;BME280;23715;53.652;8.516;2023-05-13T19:44:35;102195.80;;;18.74;100.00
37878;BME280;23715;53.652;8.516;2023-05-13T19:49:36;102197.95;;;18.94;100.00
37878;BME280;23715;53.652;8.516;2023-05-13T19:54:36;102201.89;;;19.14;100.00
37878;BME280;23715;53.652;8.516;2023-05-13T19:59:36;102201.38;;;18.96;100.00
37878;BME280;23715;53.652;8.516;2023-05-13T20:04:38;102211.42;;;18.82;100.00
37878;BME280;23715;53.652;8.516;2023-05-13T20:09:38;102206.53;;;18.85;100.00
37878;BME280;23715;53.652;8.516;2023-05-13T20:14:43;102208.07;;;18.74;100.00
37878;BME280;23715;53.652;8.516;2023-05-13T20:19:45;102200.38;;;18.83;100.00
37878;BME280;23715;53.652;8.516;2023-05-13T20:24:51;102198.70;;;18.72;100.00
37878;BME280;23715;53.652;8.516;2023-05-13T20:29:52;102198.83;;;18.81;100.00
37878;BME280;23715;53.652;8.516;2023-05-13T20:34:53;102191.80;;;18.92;100.00
37878;BME280;23715;53.652;8.516;2023-05-13T20:39:53;102195.03;;;18.91;100.00
37878;BME280;23715;53.652;8.516;2023-05-13T20:44:53;102193.34;;;18.95;100.00
37878;BME280;23715;53.652;8.516;2023-05-13T20:49:54;102195.66;;;18.76;100.00
37878;BME280;23715;53.652;8.516;2023-05-13T20:54:54;102191.72;;;18.74;100.00
37878;BME280;23715;53.652;8.516;2023-05-13T20:59:58;102196.92;;;18.40;100.00
37878;BME280;23715;53.652;8.516;2023-05-13T21:04:58;102194.14;;;17.98;100.00
37878;BME280;23715;53.652;8.516;2023-05-13T21:09:58;102196.13;;;17.72;100.00
37878;BME280;23715;53.652;8.516;2023-05-13T21:14:58;102203.32;;;17.25;100.00
37878;BME280;23715;53.652;8.516;2023-05-13T21:19:58;102202.36;;;17.10;100.00
37878;BME280;23715;53.652;8.516;2023-05-13T21:24:59;102203.80;;;17.24;100.00
37878;BME280;23715;53.652;8.516;2023-05-13T21:29:59;102201.45;;;17.35;100.00
37878;BME280;23715;53.652;8.516;2023-05-13T21:35:02;102197.64;;;17.22;100.00
37878;BME280;23715;53.652;8.516;2023-05-13T21:40:05;102197.58;;;17.08;100.00
37878;BME280;23715;53.652;8.516;2023-05-13T21:45:05;102201.14;;;16.74;100.00
37878;BME280;23715;53.652;8.516;2023-05-13T21:50:07;102197.81;;;16.61;100.00
37878;BME280;23715;53.652;8.516;2023-05-13T21:55:08;102200.28;;;16.73;100.00
37878;BME280;23715;53.652;8.516;2023-05-13T22:00:08;102205.36;;;16.32;100.00
37878;BME280;23715;53.652;8.516;2023-05-13T22:05:12;102202.27;;;16.31;100.00
37878;BME280;23715;53.652;8.516;2023-05-13T22:10:13;102204.98;;;16.31;100.00
37878;BME280;23715;53.652;8.516;2023-05-13T22:15:13;102200.15;;;16.34;100.00
37878;BME280;23715;53.652;8.516;2023-05-13T22:20:13;102195.39;;;16.42;100.00
37878;BME280;23715;53.652;8.516;2023-05-13T22:25:14;102199.22;;;16.14;100.00
37878;BME280;23715;53.652;8.516;2023-05-13T22:30:14;102196.50;;;16.30;100.00
37878;BME280;23715;53.652;8.516;2023-05-13T22:35:14;102185.65;;;16.14;100.00
37878;BME280;23715;53.652;8.516;2023-05-13T22:40:14;102185.99;;;16.00;100.00
37878;BME280;23715;53.652;8.516;2023-05-13T22:45:14;102185.62;;;15.57;100.00
37878;BME280;23715;53.652;8.516;2023-05-13T22:50:16;102180.13;;;15.74;100.00
37878;BME280;23715;53.652;8.516;2023-05-13T22:55:17;102184.67;;;15.52;100.00
37878;BME280;23715;53.652;8.516;2023-05-13T23:00:17;102177.11;;;15.61;100.00
37878;BME280;23715;53.652;8.516;2023-05-13T23:05:18;102172.69;;;15.55;100.00
37878;BME280;23715;53.652;8.516;2023-05-13T23:10:20;102175.12;;;15.42;100.00
37878;BME280;23715;53.652;8.516;2023-05-13T23:15:20;102170.83;;;15.55;100.00
37878;BME280;23715;53.652;8.516;2023-05-13T23:20:20;102163.39;;;15.63;100.00
37878;BME280;23715;53.652;8.516;2023-05-13T23:25:21;102160.08;;;15.65;100.00
37878;BME280;23715;53.652;8.516;2023-05-13T23:30:21;102159.13;;;15.55;100.00
37878;BME280;23715;53.652;8.516;2023-05-13T23:35:21;102157.67;;;15.30;100.00
37878;BME280;23715;53.652;8.516;2023-05-13T23:40:21;102160.73;;;15.04;100.00
37878;BME280;23715;53.652;8.516;2023-05-13T23:45:21;102162.52;;;14.88;100.00
37878;BME280;23715;53.652;8.516;2023-05-13T23:50:21;102155.20;;;15.00;100.00
37878;BME280;23715;53.652;8.516;2023-05-13T23:55:22;102150.92;;;15.24;100.00
